Pool, West Virginia
Current Conditions -  °F | °C
As of 11:51 PM on Sunday 19 Oct 2014 (Local Time) from KBKW Reporting Station
Clear Clear  
Wind Chill: 38°   Ceiling: Unl
Heat Index: 41°   Visibility: 10mi
Dew Point: 35°   Wind: 5mph
Humidity: 79%   Direction: 150°SSE
Pressure: 30.11"   Gusts: NA
Location:  38.16°N, 80.86°W
Report Text: KBKW 200351Z AUTO 15004KT 10SM CLR 05/02 A3011 RMK AO2 SLP205 T00500017 TSNO
Loading
Personal Weather Stations






























Interactive Weather Map
Tropical Storm Tracking
New forecast layout! Learn more

10-Day Weather Forecast

Advertisements
Track Severe Weather on mobile